createdAt,value
2023-07-03T00:00:52.878Z,15.62
2023-07-03T00:03:20.838Z,15.33
2023-07-03T00:05:49.492Z,15.28
2023-07-03T00:08:19.264Z,15.20
2023-07-03T00:10:48.418Z,15.08
2023-07-03T00:13:16.277Z,15.07
2023-07-03T00:15:44.409Z,15.04
2023-07-03T00:18:12.406Z,15.30
2023-07-03T00:20:40.634Z,15.30
2023-07-03T00:23:08.623Z,15.13
2023-07-03T00:25:39.060Z,14.89
2023-07-03T00:28:08.295Z,14.97
2023-07-03T00:30:37.501Z,15.24
2023-07-03T00:33:05.353Z,15.31
2023-07-03T00:35:33.774Z,15.00
2023-07-03T00:38:01.646Z,14.93
2023-07-03T00:40:29.657Z,14.77
2023-07-03T00:42:58.104Z,14.71
2023-07-03T00:45:28.003Z,14.66
2023-07-03T00:47:55.814Z,14.61
2023-07-03T00:50:24.302Z,14.54
2023-07-03T00:52:55.749Z,14.35
2023-07-03T00:55:24.540Z,14.38
2023-07-03T00:57:53.045Z,14.25
2023-07-03T01:00:22.373Z,14.20
2023-07-03T01:02:59.954Z,14.24
2023-07-03T01:05:31.407Z,14.29
2023-07-03T01:08:02.953Z,14.20
2023-07-03T01:10:32.866Z,14.18
2023-07-03T01:13:03.498Z,14.22
2023-07-03T01:15:35.912Z,14.22
2023-07-03T01:18:07.085Z,14.18
2023-07-03T01:20:41.187Z,14.05
2023-07-03T01:23:18.092Z,14.08
2023-07-03T01:25:49.591Z,14.03
2023-07-03T01:28:20.474Z,14.10
2023-07-03T01:30:51.084Z,14.07
2023-07-03T01:33:22.965Z,14.07
2023-07-03T01:35:52.980Z,14.10
2023-07-03T01:38:22.495Z,14.21
2023-07-03T01:40:52.584Z,14.13
2023-07-03T01:43:20.903Z,14.00
2023-07-03T01:45:50.158Z,14.01
2023-07-03T01:48:20.774Z,13.94
2023-07-03T01:50:50.050Z,13.93
2023-07-03T01:53:19.464Z,13.94
2023-07-03T01:55:52.463Z,13.91
2023-07-03T01:58:31.299Z,13.81
2023-07-03T02:01:02.346Z,13.86
2023-07-03T02:03:36.307Z,13.87
2023-07-03T02:06:09.483Z,14.00
2023-07-03T02:08:38.022Z,13.87
2023-07-03T02:11:15.715Z,13.76
2023-07-03T02:13:45.556Z,13.83
2023-07-03T02:16:16.933Z,13.83
2023-07-03T02:18:47.842Z,13.88
2023-07-03T02:21:18.075Z,13.86
2023-07-03T02:23:46.418Z,13.95
2023-07-03T02:26:16.660Z,13.94
2023-07-03T02:28:44.644Z,13.94
2023-07-03T02:31:13.288Z,14.13
2023-07-03T02:33:41.210Z,14.11
2023-07-03T02:36:09.258Z,14.05
2023-07-03T02:38:37.141Z,14.03
2023-07-03T02:41:05.109Z,13.97
2023-07-03T02:43:34.336Z,14.07
2023-07-03T02:46:06.376Z,14.05
2023-07-03T02:48:35.728Z,14.08
2023-07-03T02:51:04.875Z,14.21
2023-07-03T02:53:34.197Z,14.29
2023-07-03T02:56:08.580Z,14.32
2023-07-03T02:58:40.103Z,14.15
2023-07-03T03:01:09.858Z,14.10
2023-07-03T03:03:37.985Z,14.14
2023-07-03T03:06:06.373Z,14.14
2023-07-03T03:08:34.481Z,14.11
2023-07-03T03:11:02.353Z,14.11
2023-07-03T03:13:30.261Z,14.24
2023-07-03T03:16:01.453Z,14.13
2023-07-03T03:18:29.123Z,14.05
2023-07-03T03:20:57.067Z,14.07
2023-07-03T03:23:24.955Z,14.05
2023-07-03T03:25:53.081Z,14.15
2023-07-03T03:28:21.787Z,14.15
2023-07-03T03:30:49.720Z,14.01
2023-07-03T03:33:19.024Z,14.05
2023-07-03T03:35:47.252Z,13.90
2023-07-03T03:38:15.661Z,13.93
2023-07-03T03:40:45.050Z,13.93
2023-07-03T03:43:12.907Z,13.87
2023-07-03T03:45:40.865Z,13.95
2023-07-03T03:48:08.893Z,14.04
2023-07-03T03:50:38.829Z,14.04
2023-07-03T03:53:06.688Z,14.04
2023-07-03T03:55:34.667Z,14.14
2023-07-03T03:58:02.699Z,14.14
2023-07-03T04:00:30.983Z,14.24
2023-07-03T04:02:59.851Z,14.17
2023-07-03T04:05:27.736Z,14.13
2023-07-03T04:07:56.943Z,14.17
2023-07-03T04:10:24.819Z,14.14
2023-07-03T04:12:53.052Z,14.24
2023-07-03T04:15:20.925Z,14.36
2023-07-03T04:17:49.008Z,14.39
2023-07-03T04:20:18.857Z,14.32
2023-07-03T04:22:47.256Z,14.25
2023-07-03T04:25:16.482Z,14.46
2023-07-03T04:27:44.296Z,14.36
2023-07-03T04:30:13.193Z,14.38
2023-07-03T04:32:41.192Z,14.35
2023-07-03T04:35:09.970Z,14.35
2023-07-03T04:37:38.253Z,14.32
2023-07-03T04:40:07.754Z,14.38
2023-07-03T04:42:36.949Z,14.25
2023-07-03T04:45:07.340Z,14.34
2023-07-03T04:47:38.780Z,14.48
2023-07-03T04:50:08.955Z,14.41
2023-07-03T04:52:39.702Z,14.51
2023-07-03T04:55:08.911Z,14.65
2023-07-03T04:57:39.634Z,14.72
2023-07-03T05:00:15.697Z,14.75
2023-07-03T05:02:43.895Z,14.65
2023-07-03T05:05:12.822Z,14.68
2023-07-03T05:07:41.418Z,14.73
2023-07-03T05:10:10.936Z,14.76
2023-07-03T05:12:40.206Z,14.83
2023-07-03T05:15:09.569Z,14.73
2023-07-03T05:17:39.691Z,14.89
2023-07-03T05:20:11.194Z,15.07
2023-07-03T05:22:39.888Z,15.20
2023-07-03T05:25:09.113Z,15.27
2023-07-03T05:27:37.189Z,15.20
2023-07-03T05:30:08.231Z,15.04
2023-07-03T05:32:36.588Z,15.10
2023-07-03T05:35:06.448Z,15.07
2023-07-03T05:37:35.197Z,15.03
2023-07-03T05:40:04.936Z,15.03
2023-07-03T05:42:33.026Z,15.14
2023-07-03T05:45:00.912Z,15.08
2023-07-03T05:47:30.714Z,15.08
2023-07-03T05:49:58.809Z,15.17
2023-07-03T05:52:26.970Z,15.16
2023-07-03T05:54:54.912Z,15.22
2023-07-03T05:57:23.283Z,15.26
2023-07-03T05:59:51.784Z,15.41
2023-07-03T06:02:20.148Z,15.55
2023-07-03T06:04:49.419Z,15.58
2023-07-03T06:07:17.291Z,15.77
2023-07-03T06:09:47.483Z,15.82
2023-07-03T06:12:15.383Z,15.87
2023-07-03T06:14:43.256Z,15.92
2023-07-03T06:17:11.171Z,16.01
2023-07-03T06:19:39.056Z,16.09
2023-07-03T06:22:08.484Z,16.09
2023-07-03T06:24:36.317Z,16.19
2023-07-03T06:27:04.836Z,16.26
2023-07-03T06:29:32.892Z,16.49
2023-07-03T06:32:00.820Z,16.61
2023-07-03T06:34:28.839Z,16.77
2023-07-03T06:36:56.697Z,17.38
2023-07-03T06:39:25.962Z,17.68
2023-07-03T06:41:53.618Z,17.82
2023-07-03T06:44:22.457Z,17.72
2023-07-03T06:46:52.037Z,18.69
2023-07-03T06:49:21.326Z,19.32
2023-07-03T06:51:49.378Z,19.63
2023-07-03T06:54:17.432Z,20.68
2023-07-03T06:56:46.756Z,20.89
2023-07-03T06:59:14.873Z,21.20
2023-07-03T07:01:42.998Z,22.49
2023-07-03T07:04:11.424Z,22.66
2023-07-03T07:06:41.350Z,23.48
2023-07-03T07:09:09.201Z,24.07
2023-07-03T07:11:37.980Z,24.12
2023-07-03T07:14:08.112Z,24.40
2023-07-03T07:16:38.152Z,23.85
2023-07-03T07:19:08.137Z,22.67
2023-07-03T07:21:37.325Z,22.49
2023-07-03T07:24:14.796Z,21.69
2023-07-03T07:26:42.713Z,22.45
2023-07-03T07:29:12.105Z,22.77
2023-07-03T07:31:41.856Z,23.22
2023-07-03T07:34:11.998Z,23.82
2023-07-03T07:36:41.358Z,24.96
2023-07-03T07:39:10.432Z,26.02
2023-07-03T07:41:38.451Z,25.09
2023-07-03T07:44:07.118Z,23.78
2023-07-03T07:46:36.702Z,22.68
2023-07-03T07:49:04.795Z,23.31
2023-07-03T07:51:32.962Z,24.06
2023-07-03T07:54:01.122Z,26.21
2023-07-03T07:56:31.555Z,24.54
2023-07-03T07:59:00.501Z,24.67
2023-07-03T08:01:28.633Z,25.46
2023-07-03T08:03:58.172Z,25.01
2023-07-03T08:06:26.230Z,24.03
2023-07-03T08:08:54.364Z,24.94
2023-07-03T08:11:22.319Z,25.38
2023-07-03T08:13:50.253Z,24.46
2023-07-03T08:16:18.701Z,23.48
2023-07-03T08:18:49.626Z,23.61
2023-07-03T08:21:19.322Z,22.70
2023-07-03T08:23:47.192Z,21.65
2023-07-03T08:26:20.283Z,21.34
2023-07-03T08:28:48.238Z,20.83
2023-07-03T08:31:16.094Z,21.06
2023-07-03T08:33:44.157Z,20.90
2023-07-03T08:38:44.161Z,21.24
2023-07-03T08:41:14.688Z,21.40
2023-07-03T08:43:44.418Z,20.52
2023-07-03T08:46:15.234Z,20.41
2023-07-03T08:48:44.912Z,20.25
2023-07-03T08:51:17.036Z,19.93
2023-07-03T08:53:49.769Z,19.62
2023-07-03T08:56:21.490Z,19.27
2023-07-03T08:58:52.148Z,18.81
2023-07-03T09:01:23.950Z,18.89
2023-07-03T09:04:02.583Z,19.11
2023-07-03T09:06:37.949Z,19.34
2023-07-03T09:09:16.077Z,19.85
2023-07-03T09:11:49.096Z,20.12
2023-07-03T09:14:21.938Z,21.71
2023-07-03T09:16:50.000Z,22.04
2023-07-03T09:19:22.288Z,21.47
2023-07-03T09:21:53.824Z,22.09
2023-07-03T09:24:27.480Z,21.73
2023-07-03T09:27:01.527Z,21.31
2023-07-03T09:29:31.040Z,21.59
2023-07-03T09:31:58.931Z,20.87
2023-07-03T09:34:26.891Z,20.25
2023-07-03T09:36:59.947Z,19.94
2023-07-03T09:39:29.235Z,20.21
2023-07-03T09:42:07.427Z,21.50
2023-07-03T09:44:43.161Z,21.28
2023-07-03T09:47:19.262Z,21.74
2023-07-03T09:49:47.185Z,22.09
2023-07-03T09:52:16.752Z,22.68
2023-07-03T09:54:48.677Z,22.08
2023-07-03T09:57:22.083Z,21.85
2023-07-03T09:59:50.010Z,21.31
2023-07-03T10:07:20.587Z,20.04
2023-07-03T10:12:29.127Z,19.93
2023-07-03T10:15:01.661Z,19.93
2023-07-03T10:17:33.895Z,19.94
2023-07-03T10:20:09.299Z,19.90
2023-07-03T10:22:38.488Z,19.88
2023-07-03T10:25:09.695Z,20.38
2023-07-03T10:27:39.291Z,20.61
2023-07-03T10:30:12.344Z,20.66
2023-07-03T10:32:42.004Z,20.42
2023-07-03T10:35:14.766Z,20.08
2023-07-03T10:37:51.535Z,19.77
2023-07-03T10:40:24.715Z,19.59
2023-07-03T10:42:56.916Z,19.42
2023-07-03T10:45:26.593Z,19.39
2023-07-03T10:47:57.775Z,19.56
2023-07-03T10:50:33.007Z,20.11
2023-07-03T10:53:07.390Z,20.66
2023-07-03T10:55:45.059Z,21.38
2023-07-03T10:58:24.403Z,21.94
2023-07-03T11:00:59.522Z,22.45
2023-07-03T11:03:35.362Z,23.58
2023-07-03T11:06:06.550Z,23.29
2023-07-03T11:08:41.160Z,23.44
2023-07-03T11:11:19.985Z,23.89
2023-07-03T11:13:56.538Z,23.18
2023-07-03T11:16:30.251Z,23.04
2023-07-03T11:24:25.687Z,22.19
2023-07-03T11:29:36.022Z,21.37
2023-07-03T11:32:04.338Z,22.60
2023-07-03T11:40:29.366Z,23.34
2023-07-03T11:43:30.902Z,24.17
2023-07-03T11:46:11.979Z,24.31
2023-07-03T11:48:47.386Z,23.86
2023-07-03T11:51:17.170Z,24.99
2023-07-03T11:53:47.024Z,25.30
2023-07-03T11:56:36.905Z,24.75
2023-07-03T11:59:09.213Z,23.87
2023-07-03T12:01:37.943Z,23.27
2023-07-03T12:04:08.961Z,22.53
2023-07-03T12:06:48.904Z,22.16
2023-07-03T12:09:26.458Z,21.78
2023-07-03T12:12:14.402Z,22.53
2023-07-03T12:14:54.866Z,23.75
2023-07-03T12:17:24.717Z,23.58
2023-07-03T12:19:56.808Z,23.96
2023-07-03T12:22:27.282Z,24.33
2023-07-03T12:25:09.666Z,23.21
2023-07-03T12:27:38.389Z,23.87
2023-07-03T12:30:11.723Z,23.59
2023-07-03T12:32:39.912Z,23.51
2023-07-03T12:35:12.945Z,22.90
2023-07-03T12:37:47.043Z,22.17
2023-07-03T12:40:16.748Z,22.64
2023-07-03T12:42:47.441Z,22.57
2023-07-03T12:45:20.494Z,22.91
2023-07-03T12:48:00.997Z,23.37
2023-07-03T12:50:29.093Z,23.21
2023-07-03T12:52:58.327Z,23.14
2023-07-03T12:55:27.077Z,23.41
2023-07-03T12:57:55.250Z,23.56
2023-07-03T13:00:31.896Z,23.51
2023-07-03T13:03:00.608Z,23.73
2023-07-03T13:05:28.992Z,23.69
2023-07-03T13:07:56.991Z,23.86
2023-07-03T13:10:25.439Z,23.76
2023-07-03T13:13:10.393Z,23.79
2023-07-03T13:15:42.101Z,23.99
2023-07-03T13:18:16.075Z,24.05
2023-07-03T13:20:56.344Z,23.41
2023-07-03T13:23:30.296Z,23.49
2023-07-03T13:25:59.033Z,23.45
2023-07-03T13:28:29.189Z,22.96
2023-07-03T13:31:13.196Z,22.93
2023-07-03T13:33:43.083Z,22.96
2023-07-03T13:36:22.848Z,22.93
2023-07-03T13:39:02.143Z,23.17
2023-07-03T13:41:30.045Z,23.17
2023-07-03T13:43:58.499Z,22.64
2023-07-03T13:46:28.900Z,22.61
2023-07-03T13:48:56.820Z,22.67
2023-07-03T13:51:24.726Z,22.78
2023-07-03T13:53:56.236Z,22.67
2023-07-03T13:56:31.459Z,22.86
2023-07-03T13:58:59.301Z,23.04
2023-07-03T14:01:28.569Z,23.00
2023-07-03T14:03:57.077Z,23.07
2023-07-03T14:06:25.458Z,23.31
2023-07-03T14:08:54.301Z,23.27
2023-07-03T14:11:22.142Z,23.18
2023-07-03T14:13:50.996Z,23.39
2023-07-03T14:16:19.042Z,23.68
2023-07-03T14:18:48.266Z,23.76
2023-07-03T14:21:18.365Z,23.62
2023-07-03T14:23:48.608Z,23.11
2023-07-03T14:26:17.120Z,22.61
2023-07-03T14:28:46.674Z,22.70
2023-07-03T14:31:16.965Z,22.66
2023-07-03T14:33:45.778Z,22.61
2023-07-03T14:36:14.999Z,22.66
2023-07-03T14:38:42.857Z,22.46
2023-07-03T14:41:11.267Z,22.61
2023-07-03T14:43:39.367Z,22.43
2023-07-03T14:46:07.870Z,22.47
2023-07-03T14:48:35.794Z,22.37
2023-07-03T14:51:04.152Z,22.52
2023-07-03T14:53:33.410Z,22.73
2023-07-03T14:56:03.804Z,22.56
2023-07-03T14:58:32.007Z,22.56
2023-07-03T15:01:01.997Z,22.64
2023-07-03T15:03:30.843Z,22.50
2023-07-03T15:05:58.813Z,22.74
2023-07-03T15:08:27.780Z,22.93
2023-07-03T15:10:56.819Z,22.76
2023-07-03T15:13:24.546Z,22.76
2023-07-03T15:15:52.656Z,22.66
2023-07-03T15:18:20.832Z,22.68
2023-07-03T15:20:48.655Z,22.84
2023-07-03T15:23:16.616Z,23.07
2023-07-03T15:25:44.539Z,22.88
2023-07-03T15:28:13.834Z,23.04
2023-07-03T15:30:42.007Z,23.04
2023-07-03T15:33:10.173Z,23.03
2023-07-03T15:35:38.095Z,22.81
2023-07-03T15:38:06.029Z,22.64
2023-07-03T15:40:33.895Z,22.70
2023-07-03T15:43:01.767Z,22.57
2023-07-03T15:45:32.285Z,22.42
2023-07-03T15:48:00.188Z,22.39
2023-07-03T15:50:28.117Z,22.43
2023-07-03T15:52:56.852Z,22.43
2023-07-03T15:55:24.855Z,22.43
2023-07-03T15:57:52.951Z,22.28
2023-07-03T16:00:21.331Z,22.29
2023-07-03T16:02:50.602Z,22.36
2023-07-03T16:05:19.519Z,22.26
2023-07-03T16:07:47.406Z,22.13
2023-07-03T16:10:15.366Z,22.13
2023-07-03T16:12:43.228Z,22.15
2023-07-03T16:15:11.730Z,22.19
2023-07-03T16:17:39.676Z,22.09
2023-07-03T16:20:13.032Z,22.16
2023-07-03T16:22:40.895Z,22.26
2023-07-03T16:25:09.543Z,22.06
2023-07-03T16:27:39.399Z,21.99
2023-07-03T16:30:08.678Z,21.86
2023-07-03T16:32:36.621Z,21.91
2023-07-03T16:35:04.654Z,21.79
2023-07-03T16:37:33.883Z,21.77
2023-07-03T16:40:01.899Z,21.85
2023-07-03T16:42:29.862Z,21.82
2023-07-03T16:44:57.788Z,21.82
2023-07-03T16:47:25.688Z,21.74
2023-07-03T16:49:53.562Z,21.65
2023-07-03T16:52:21.469Z,21.64
2023-07-03T16:54:50.634Z,21.65
2023-07-03T16:57:18.479Z,21.55
2023-07-03T16:59:46.436Z,21.51
2023-07-03T17:02:14.425Z,21.41
2023-07-03T17:04:42.324Z,21.37
2023-07-03T17:07:10.194Z,21.23
2023-07-03T17:09:38.119Z,21.23
2023-07-03T17:12:08.516Z,21.27
2023-07-03T17:14:36.662Z,21.27
2023-07-03T17:17:04.817Z,21.28
2023-07-03T17:19:33.842Z,21.34
2023-07-03T17:22:01.602Z,21.20
2023-07-03T17:24:29.442Z,21.22
2023-07-03T17:26:57.279Z,21.24
2023-07-03T17:29:26.794Z,21.19
2023-07-03T17:31:54.711Z,21.17
2023-07-03T17:34:22.598Z,21.06
2023-07-03T17:36:50.496Z,21.10
2023-07-03T17:39:18.401Z,21.16
2023-07-03T17:41:46.617Z,20.97
2023-07-03T17:44:14.581Z,20.90
2023-07-03T17:46:43.842Z,20.87
2023-07-03T17:49:11.765Z,20.92
2023-07-03T17:51:39.647Z,20.77
2023-07-03T17:54:07.838Z,20.77
2023-07-03T17:56:35.713Z,20.73
2023-07-03T17:59:03.550Z,20.71
2023-07-03T18:01:31.484Z,20.66
2023-07-03T18:04:01.700Z,20.57
2023-07-03T18:06:29.755Z,20.62
2023-07-03T18:08:57.777Z,20.57
2023-07-03T18:11:26.565Z,20.45
2023-07-03T18:13:54.860Z,20.49
2023-07-03T18:16:23.006Z,20.44
2023-07-03T18:18:50.936Z,20.48
2023-07-03T18:21:20.134Z,20.48
2023-07-03T18:23:49.542Z,20.36
2023-07-03T18:26:17.554Z,20.32
2023-07-03T18:28:46.228Z,20.39
2023-07-03T18:31:14.148Z,20.22
2023-07-03T18:33:42.046Z,20.22
2023-07-03T18:36:10.159Z,20.07
2023-07-03T18:38:39.435Z,20.08
2023-07-03T18:41:08.720Z,20.00
2023-07-03T18:43:36.572Z,19.93
2023-07-03T18:46:07.910Z,20.03
2023-07-03T18:48:36.119Z,19.94
2023-07-03T18:51:04.047Z,19.95
2023-07-03T18:53:31.903Z,19.87
2023-07-03T18:56:01.162Z,19.74
2023-07-03T18:58:29.028Z,19.78
2023-07-03T19:00:56.929Z,19.70
2023-07-03T19:03:24.822Z,19.74
2023-07-03T19:05:55.873Z,19.77
2023-07-03T19:08:24.210Z,19.57
2023-07-03T19:10:52.359Z,19.62
2023-07-03T19:13:21.741Z,19.49
2023-07-03T19:15:49.947Z,19.40
2023-07-03T19:18:17.965Z,19.36
2023-07-03T19:20:45.992Z,19.24
2023-07-03T19:23:13.857Z,19.24
2023-07-03T19:25:41.754Z,19.19
2023-07-03T19:28:10.284Z,19.03
2023-07-03T19:30:39.620Z,19.06
2023-07-03T19:33:07.584Z,18.95
2023-07-03T19:35:37.653Z,19.02
2023-07-03T19:38:05.551Z,18.95
2023-07-03T19:40:37.795Z,18.98
2023-07-03T19:43:05.838Z,18.95
2023-07-03T19:45:34.626Z,18.78
2023-07-03T19:48:04.672Z,18.62
2023-07-03T19:50:33.016Z,18.65
2023-07-03T19:53:00.998Z,18.57
2023-07-03T19:55:29.023Z,18.43
2023-07-03T19:57:56.877Z,18.47
2023-07-03T20:00:26.794Z,18.31
2023-07-03T20:02:55.561Z,18.27
2023-07-03T20:05:25.197Z,18.95
2023-07-03T20:07:53.476Z,19.01
2023-07-03T20:10:21.441Z,18.79
2023-07-03T20:12:52.541Z,18.40
2023-07-03T20:15:21.601Z,18.10
2023-07-03T20:17:50.158Z,18.06
2023-07-03T20:20:18.138Z,17.87
2023-07-03T20:22:47.417Z,17.94
2023-07-03T20:25:15.558Z,17.96
2023-07-03T20:27:43.496Z,17.82
2023-07-03T20:30:12.091Z,17.72
2023-07-03T20:32:39.997Z,17.73
2023-07-03T20:35:08.483Z,17.72
2023-07-03T20:37:36.339Z,17.78
2023-07-03T20:40:06.777Z,17.70
2023-07-03T20:42:34.831Z,17.55
2023-07-03T20:45:02.948Z,17.39
2023-07-03T20:47:32.691Z,17.49
2023-07-03T20:50:01.600Z,17.34
2023-07-03T20:52:30.816Z,17.24
2023-07-03T20:55:23.423Z,17.34
2023-07-03T20:57:52.981Z,17.31
2023-07-03T21:00:21.650Z,17.38
2023-07-03T21:02:51.231Z,17.24
2023-07-03T21:05:20.213Z,17.14
2023-07-03T21:07:48.533Z,17.22
2023-07-03T21:10:16.587Z,17.08
2023-07-03T21:12:44.599Z,17.15
2023-07-03T21:15:14.057Z,16.98
2023-07-03T21:17:42.015Z,17.10
2023-07-03T21:20:11.246Z,16.98
2023-07-03T21:22:38.973Z,16.94
2023-07-03T21:25:07.639Z,16.97
2023-07-03T21:27:35.474Z,17.06
2023-07-03T21:30:03.435Z,17.06
2023-07-03T21:32:32.750Z,16.97
2023-07-03T21:35:00.995Z,17.08
2023-07-03T21:37:30.942Z,16.81
2023-07-03T21:39:59.017Z,16.77
2023-07-03T21:42:26.936Z,16.60
2023-07-03T21:44:54.769Z,16.61
2023-07-03T21:47:22.618Z,16.57
2023-07-03T21:49:51.864Z,16.52
2023-07-03T21:52:19.556Z,16.30
2023-07-03T21:54:48.540Z,16.30
2023-07-03T21:57:19.284Z,16.34
2023-07-03T21:59:49.494Z,16.18
2023-07-03T22:02:17.308Z,16.22
2023-07-03T22:04:45.203Z,16.25
2023-07-03T22:07:14.696Z,16.12
2023-07-03T22:09:42.928Z,16.19
2023-07-03T22:12:11.787Z,16.34
2023-07-03T22:14:39.777Z,16.40
2023-07-03T22:17:07.831Z,16.18
2023-07-03T22:19:37.487Z,16.23
2023-07-03T22:22:07.418Z,16.12
2023-07-03T22:24:36.631Z,16.09
2023-07-03T22:27:05.108Z,15.91
2023-07-03T22:29:33.079Z,15.97
2023-07-03T22:32:00.966Z,15.97
2023-07-03T22:34:28.841Z,16.26
2023-07-03T22:36:56.681Z,16.09
2023-07-03T22:39:24.530Z,16.28
2023-07-03T22:41:54.389Z,16.29
2023-07-03T22:44:22.247Z,16.23
2023-07-03T22:46:51.961Z,16.26
2023-07-03T22:49:25.142Z,16.40
2023-07-03T22:51:54.002Z,16.38
2023-07-03T22:54:22.584Z,16.26
2023-07-03T22:56:50.495Z,16.43
2023-07-03T22:59:19.818Z,16.45
2023-07-03T23:01:49.192Z,16.61
2023-07-03T23:04:17.688Z,16.50
2023-07-03T23:06:46.911Z,16.74
2023-07-03T23:09:15.098Z,16.49
2023-07-03T23:11:42.948Z,16.53
2023-07-03T23:14:11.344Z,16.59
2023-07-03T23:16:40.644Z,16.76
2023-07-03T23:19:09.115Z,16.45
2023-07-03T23:21:36.973Z,16.69
2023-07-03T23:24:05.054Z,16.84
2023-07-03T23:26:32.982Z,16.53
2023-07-03T23:29:02.192Z,16.73
2023-07-03T23:31:30.389Z,16.57
2023-07-03T23:33:59.607Z,16.50
2023-07-03T23:36:29.075Z,16.63
2023-07-03T23:38:59.302Z,16.61
2023-07-03T23:41:27.864Z,16.40
2023-07-03T23:43:57.527Z,16.23
2023-07-03T23:46:27.793Z,16.10
2023-07-03T23:48:55.716Z,16.06
2023-07-03T23:51:25.065Z,16.15
2023-07-03T23:53:52.976Z,16.23
2023-07-03T23:56:21.870Z,16.13
2023-07-03T23:58:50.812Z,16.09
